sensor_id;sensor_type;location;lat;lon;timestamp;P1;durP1;ratioP1;P2;durP2;ratioP2
71095;SDS011;58753;49.440;11.126;2023-12-07T00:01:07;4.53;;;2.40;;
71095;SDS011;58753;49.440;11.126;2023-12-07T00:03:33;3.47;;;2.20;;
71095;SDS011;58753;49.440;11.126;2023-12-07T00:05:58;4.15;;;2.72;;
71095;SDS011;58753;49.440;11.126;2023-12-07T00:08:24;8.77;;;3.60;;
71095;SDS011;58753;49.440;11.126;2023-12-07T00:10:49;5.70;;;2.60;;
71095;SDS011;58753;49.440;11.126;2023-12-07T00:13:14;4.80;;;2.13;;
71095;SDS011;58753;49.440;11.126;2023-12-07T00:15:40;5.07;;;3.30;;
71095;SDS011;58753;49.440;11.126;2023-12-07T00:18:05;6.30;;;2.17;;
71095;SDS011;58753;49.440;11.126;2023-12-07T00:20:31;3.83;;;2.00;;
71095;SDS011;58753;49.440;11.126;2023-12-07T00:22:56;3.50;;;1.30;;
71095;SDS011;58753;49.440;11.126;2023-12-07T00:25:21;6.40;;;2.13;;
71095;SDS011;58753;49.440;11.126;2023-12-07T00:27:48;5.82;;;2.65;;
71095;SDS011;58753;49.440;11.126;2023-12-07T00:30:13;7.70;;;2.92;;
71095;SDS011;58753;49.440;11.126;2023-12-07T00:32:39;5.30;;;2.20;;
71095;SDS011;58753;49.440;11.126;2023-12-07T00:35:08;5.30;;;2.92;;
71095;SDS011;58753;49.440;11.126;2023-12-07T00:37:34;8.95;;;3.17;;
71095;SDS011;58753;49.440;11.126;2023-12-07T00:39:59;4.03;;;2.23;;
71095;SDS011;58753;49.440;11.126;2023-12-07T00:42:26;4.75;;;2.15;;
71095;SDS011;58753;49.440;11.126;2023-12-07T00:44:51;4.10;;;2.63;;
71095;SDS011;58753;49.440;11.126;2023-12-07T00:47:16;3.70;;;2.27;;
71095;SDS011;58753;49.440;11.126;2023-12-07T00:49:42;3.95;;;2.20;;
71095;SDS011;58753;49.440;11.126;2023-12-07T00:52:07;4.67;;;2.03;;
71095;SDS011;58753;49.440;11.126;2023-12-07T00:54:33;5.28;;;3.33;;
71095;SDS011;58753;49.440;11.126;2023-12-07T00:56:59;4.97;;;2.67;;
71095;SDS011;58753;49.440;11.126;2023-12-07T00:59:24;2.77;;;1.70;;
71095;SDS011;58753;49.440;11.126;2023-12-07T01:01:58;5.43;;;2.60;;
71095;SDS011;58753;49.440;11.126;2023-12-07T01:04:24;4.03;;;2.72;;
71095;SDS011;58753;49.440;11.126;2023-12-07T01:06:50;5.53;;;1.97;;
71095;SDS011;58753;49.440;11.126;2023-12-07T01:09:15;10.20;;;2.23;;
71095;SDS011;58753;49.440;11.126;2023-12-07T01:11:41;3.53;;;1.83;;
71095;SDS011;58753;49.440;11.126;2023-12-07T01:14:06;3.90;;;1.67;;
71095;SDS011;58753;49.440;11.126;2023-12-07T01:16:31;6.40;;;2.67;;
71095;SDS011;58753;49.440;11.126;2023-12-07T01:18:57;3.93;;;1.50;;
71095;SDS011;58753;49.440;11.126;2023-12-07T01:21:23;11.57;;;2.35;;
71095;SDS011;58753;49.440;11.126;2023-12-07T01:23:48;2.73;;;1.73;;
71095;SDS011;58753;49.440;11.126;2023-12-07T01:26:14;2.17;;;1.33;;
71095;SDS011;58753;49.440;11.126;2023-12-07T01:28:39;4.70;;;2.43;;
71095;SDS011;58753;49.440;11.126;2023-12-07T01:31:05;6.10;;;3.10;;
71095;SDS011;58753;49.440;11.126;2023-12-07T01:33:30;6.65;;;2.95;;
71095;SDS011;58753;49.440;11.126;2023-12-07T01:35:56;9.30;;;2.83;;
71095;SDS011;58753;49.440;11.126;2023-12-07T01:38:21;3.88;;;2.33;;
71095;SDS011;58753;49.440;11.126;2023-12-07T01:40:47;6.30;;;2.13;;
71095;SDS011;58753;49.440;11.126;2023-12-07T01:43:12;5.50;;;2.60;;
71095;SDS011;58753;49.440;11.126;2023-12-07T01:45:38;6.03;;;3.10;;
71095;SDS011;58753;49.440;11.126;2023-12-07T01:48:03;6.00;;;2.13;;
71095;SDS011;58753;49.440;11.126;2023-12-07T01:50:29;7.90;;;3.10;;
71095;SDS011;58753;49.440;11.126;2023-12-07T01:52:57;3.67;;;2.03;;
71095;SDS011;58753;49.440;11.126;2023-12-07T01:55:28;6.53;;;3.20;;
71095;SDS011;58753;49.440;11.126;2023-12-07T01:57:56;4.28;;;2.33;;
71095;SDS011;58753;49.440;11.126;2023-12-07T02:00:22;6.70;;;2.10;;
71095;SDS011;58753;49.440;11.126;2023-12-07T02:02:47;5.27;;;2.37;;
71095;SDS011;58753;49.440;11.126;2023-12-07T02:05:13;6.50;;;3.95;;
71095;SDS011;58753;49.440;11.126;2023-12-07T02:07:42;4.03;;;2.07;;
71095;SDS011;58753;49.440;11.126;2023-12-07T02:10:08;6.18;;;2.45;;
71095;SDS011;58753;49.440;11.126;2023-12-07T02:12:36;4.93;;;2.20;;
71095;SDS011;58753;49.440;11.126;2023-12-07T02:15:02;2.78;;;1.70;;
71095;SDS011;58753;49.440;11.126;2023-12-07T02:20:08;6.88;;;2.55;;
71095;SDS011;58753;49.440;11.126;2023-12-07T02:22:40;5.47;;;2.92;;
71095;SDS011;58753;49.440;11.126;2023-12-07T02:25:13;3.28;;;2.03;;
71095;SDS011;58753;49.440;11.126;2023-12-07T02:27:40;5.95;;;3.45;;
71095;SDS011;58753;49.440;11.126;2023-12-07T02:30:07;4.27;;;2.27;;
71095;SDS011;58753;49.440;11.126;2023-12-07T02:32:44;5.55;;;2.58;;
71095;SDS011;58753;49.440;11.126;2023-12-07T02:35:11;3.50;;;1.70;;
71095;SDS011;58753;49.440;11.126;2023-12-07T02:37:58;6.50;;;2.67;;
71095;SDS011;58753;49.440;11.126;2023-12-07T02:40:24;6.00;;;3.30;;
71095;SDS011;58753;49.440;11.126;2023-12-07T02:42:52;4.67;;;2.10;;
71095;SDS011;58753;49.440;11.126;2023-12-07T02:45:18;7.13;;;2.60;;
71095;SDS011;58753;49.440;11.126;2023-12-07T02:47:44;6.32;;;3.00;;
71095;SDS011;58753;49.440;11.126;2023-12-07T02:50:10;6.00;;;3.50;;
71095;SDS011;58753;49.440;11.126;2023-12-07T02:52:36;5.50;;;3.40;;
71095;SDS011;58753;49.440;11.126;2023-12-07T02:55:02;6.85;;;2.55;;
71095;SDS011;58753;49.440;11.126;2023-12-07T02:57:27;4.47;;;2.17;;
71095;SDS011;58753;49.440;11.126;2023-12-07T02:59:54;7.13;;;3.15;;
71095;SDS011;58753;49.440;11.126;2023-12-07T03:02:20;4.85;;;3.22;;
71095;SDS011;58753;49.440;11.126;2023-12-07T03:04:45;6.17;;;2.47;;
71095;SDS011;58753;49.440;11.126;2023-12-07T03:07:11;7.23;;;2.70;;
71095;SDS011;58753;49.440;11.126;2023-12-07T03:09:36;5.93;;;2.90;;
71095;SDS011;58753;49.440;11.126;2023-12-07T03:12:02;4.80;;;2.60;;
71095;SDS011;58753;49.440;11.126;2023-12-07T03:14:27;7.57;;;4.37;;
71095;SDS011;58753;49.440;11.126;2023-12-07T03:16:53;9.53;;;4.43;;
71095;SDS011;58753;49.440;11.126;2023-12-07T03:19:18;4.53;;;2.22;;
71095;SDS011;58753;49.440;11.126;2023-12-07T03:21:44;6.17;;;2.20;;
71095;SDS011;58753;49.440;11.126;2023-12-07T03:24:09;9.30;;;3.23;;
71095;SDS011;58753;49.440;11.126;2023-12-07T03:26:35;1.77;;;0.95;;
71095;SDS011;58753;49.440;11.126;2023-12-07T03:29:02;8.13;;;3.78;;
71095;SDS011;58753;49.440;11.126;2023-12-07T03:31:27;10.13;;;3.17;;
71095;SDS011;58753;49.440;11.126;2023-12-07T03:33:53;7.03;;;2.90;;
71095;SDS011;58753;49.440;11.126;2023-12-07T03:36:19;6.47;;;3.77;;
71095;SDS011;58753;49.440;11.126;2023-12-07T03:38:45;7.20;;;2.80;;
71095;SDS011;58753;49.440;11.126;2023-12-07T03:41:10;7.97;;;3.87;;
71095;SDS011;58753;49.440;11.126;2023-12-07T03:43:36;7.73;;;3.43;;
71095;SDS011;58753;49.440;11.126;2023-12-07T03:46:04;5.93;;;2.83;;
71095;SDS011;58753;49.440;11.126;2023-12-07T03:48:31;10.52;;;3.42;;
71095;SDS011;58753;49.440;11.126;2023-12-07T03:50:57;5.97;;;3.47;;
71095;SDS011;58753;49.440;11.126;2023-12-07T03:53:22;8.27;;;3.53;;
71095;SDS011;58753;49.440;11.126;2023-12-07T03:55:48;8.47;;;3.10;;
71095;SDS011;58753;49.440;11.126;2023-12-07T03:58:13;6.60;;;2.55;;
71095;SDS011;58753;49.440;11.126;2023-12-07T04:00:39;5.40;;;3.30;;
71095;SDS011;58753;49.440;11.126;2023-12-07T04:03:04;7.83;;;3.83;;
71095;SDS011;58753;49.440;11.126;2023-12-07T04:05:30;7.77;;;2.90;;
71095;SDS011;58753;49.440;11.126;2023-12-07T04:07:56;6.45;;;3.25;;
71095;SDS011;58753;49.440;11.126;2023-12-07T04:10:21;3.93;;;2.03;;
71095;SDS011;58753;49.440;11.126;2023-12-07T04:12:47;4.83;;;2.50;;
71095;SDS011;58753;49.440;11.126;2023-12-07T04:15:12;7.17;;;3.03;;
71095;SDS011;58753;49.440;11.126;2023-12-07T04:17:37;3.60;;;3.10;;
71095;SDS011;58753;49.440;11.126;2023-12-07T04:20:03;6.13;;;4.13;;
71095;SDS011;58753;49.440;11.126;2023-12-07T04:22:30;4.63;;;3.35;;
71095;SDS011;58753;49.440;11.126;2023-12-07T04:24:55;6.87;;;3.30;;
71095;SDS011;58753;49.440;11.126;2023-12-07T04:27:20;5.95;;;2.80;;
71095;SDS011;58753;49.440;11.126;2023-12-07T04:29:46;6.23;;;3.80;;
71095;SDS011;58753;49.440;11.126;2023-12-07T04:32:11;5.37;;;3.13;;
71095;SDS011;58753;49.440;11.126;2023-12-07T04:34:37;5.87;;;3.73;;
71095;SDS011;58753;49.440;11.126;2023-12-07T04:37:02;8.65;;;3.13;;
71095;SDS011;58753;49.440;11.126;2023-12-07T04:39:28;4.45;;;2.38;;
71095;SDS011;58753;49.440;11.126;2023-12-07T04:41:54;7.00;;;2.83;;
71095;SDS011;58753;49.440;11.126;2023-12-07T04:44:19;5.47;;;2.57;;
71095;SDS011;58753;49.440;11.126;2023-12-07T04:46:44;8.00;;;3.27;;
71095;SDS011;58753;49.440;11.126;2023-12-07T04:49:10;7.53;;;3.30;;
71095;SDS011;58753;49.440;11.126;2023-12-07T04:51:35;5.30;;;2.10;;
71095;SDS011;58753;49.440;11.126;2023-12-07T04:54:01;7.20;;;3.03;;
71095;SDS011;58753;49.440;11.126;2023-12-07T04:56:27;4.45;;;2.03;;
71095;SDS011;58753;49.440;11.126;2023-12-07T04:58:52;2.77;;;1.83;;
71095;SDS011;58753;49.440;11.126;2023-12-07T05:01:17;3.03;;;2.27;;
71095;SDS011;58753;49.440;11.126;2023-12-07T05:03:44;4.82;;;1.30;;
71095;SDS011;58753;49.440;11.126;2023-12-07T05:06:10;3.15;;;2.22;;
71095;SDS011;58753;49.440;11.126;2023-12-07T05:08:35;2.27;;;1.53;;
71095;SDS011;58753;49.440;11.126;2023-12-07T05:11:01;5.70;;;3.15;;
71095;SDS011;58753;49.440;11.126;2023-12-07T05:13:26;4.40;;;2.37;;
71095;SDS011;58753;49.440;11.126;2023-12-07T05:15:52;5.10;;;3.33;;
71095;SDS011;58753;49.440;11.126;2023-12-07T05:18:17;4.50;;;2.57;;
71095;SDS011;58753;49.440;11.126;2023-12-07T05:20:42;1.97;;;1.33;;
71095;SDS011;58753;49.440;11.126;2023-12-07T05:23:08;2.60;;;1.63;;
71095;SDS011;58753;49.440;11.126;2023-12-07T05:25:33;6.43;;;3.10;;
71095;SDS011;58753;49.440;11.126;2023-12-07T05:27:59;4.17;;;2.53;;
71095;SDS011;58753;49.440;11.126;2023-12-07T05:30:24;3.97;;;2.00;;
71095;SDS011;58753;49.440;11.126;2023-12-07T05:32:50;2.87;;;1.97;;
71095;SDS011;58753;49.440;11.126;2023-12-07T05:35:16;6.37;;;2.23;;
71095;SDS011;58753;49.440;11.126;2023-12-07T05:37:41;3.15;;;1.85;;
71095;SDS011;58753;49.440;11.126;2023-12-07T05:40:07;2.40;;;1.77;;
71095;SDS011;58753;49.440;11.126;2023-12-07T05:42:34;4.03;;;1.98;;
71095;SDS011;58753;49.440;11.126;2023-12-07T05:44:59;5.05;;;1.80;;
71095;SDS011;58753;49.440;11.126;2023-12-07T05:47:25;2.90;;;2.17;;
71095;SDS011;58753;49.440;11.126;2023-12-07T05:49:51;4.50;;;1.65;;
71095;SDS011;58753;49.440;11.126;2023-12-07T05:52:17;5.47;;;1.90;;
71095;SDS011;58753;49.440;11.126;2023-12-07T05:54:42;7.17;;;2.37;;
71095;SDS011;58753;49.440;11.126;2023-12-07T05:57:08;3.42;;;1.73;;
71095;SDS011;58753;49.440;11.126;2023-12-07T05:59:36;4.63;;;2.57;;
71095;SDS011;58753;49.440;11.126;2023-12-07T06:02:03;5.22;;;2.53;;
71095;SDS011;58753;49.440;11.126;2023-12-07T06:04:29;3.30;;;1.73;;
71095;SDS011;58753;49.440;11.126;2023-12-07T06:06:55;6.70;;;2.47;;
71095;SDS011;58753;49.440;11.126;2023-12-07T06:09:21;6.53;;;1.80;;
71095;SDS011;58753;49.440;11.126;2023-12-07T06:11:46;3.47;;;1.63;;
71095;SDS011;58753;49.440;11.126;2023-12-07T06:14:11;3.50;;;2.27;;
71095;SDS011;58753;49.440;11.126;2023-12-07T06:16:37;3.67;;;2.23;;
71095;SDS011;58753;49.440;11.126;2023-12-07T06:19:02;5.00;;;2.87;;
71095;SDS011;58753;49.440;11.126;2023-12-07T06:21:28;7.28;;;3.03;;
71095;SDS011;58753;49.440;11.126;2023-12-07T06:23:55;5.63;;;1.93;;
71095;SDS011;58753;49.440;11.126;2023-12-07T06:26:21;3.28;;;1.40;;
71095;SDS011;58753;49.440;11.126;2023-12-07T06:28:47;3.88;;;1.70;;
71095;SDS011;58753;49.440;11.126;2023-12-07T06:31:13;8.93;;;3.37;;
71095;SDS011;58753;49.440;11.126;2023-12-07T06:33:40;4.47;;;2.25;;
71095;SDS011;58753;49.440;11.126;2023-12-07T06:36:06;6.07;;;2.75;;
71095;SDS011;58753;49.440;11.126;2023-12-07T06:38:32;7.90;;;3.57;;
71095;SDS011;58753;49.440;11.126;2023-12-07T06:40:58;2.85;;;1.48;;
71095;SDS011;58753;49.440;11.126;2023-12-07T06:43:23;6.63;;;2.87;;
71095;SDS011;58753;49.440;11.126;2023-12-07T06:45:48;4.77;;;2.77;;
71095;SDS011;58753;49.440;11.126;2023-12-07T06:48:14;5.20;;;1.80;;
71095;SDS011;58753;49.440;11.126;2023-12-07T06:50:39;8.27;;;1.93;;
71095;SDS011;58753;49.440;11.126;2023-12-07T06:53:05;5.40;;;2.23;;
71095;SDS011;58753;49.440;11.126;2023-12-07T06:55:30;8.05;;;3.47;;
71095;SDS011;58753;49.440;11.126;2023-12-07T06:57:56;3.57;;;3.27;;
71095;SDS011;58753;49.440;11.126;2023-12-07T07:00:22;6.65;;;3.35;;
71095;SDS011;58753;49.440;11.126;2023-12-07T07:02:49;3.08;;;1.63;;
71095;SDS011;58753;49.440;11.126;2023-12-07T07:05:15;6.17;;;3.77;;
71095;SDS011;58753;49.440;11.126;2023-12-07T07:07:40;4.90;;;2.00;;
71095;SDS011;58753;49.440;11.126;2023-12-07T07:10:06;7.45;;;4.03;;
71095;SDS011;58753;49.440;11.126;2023-12-07T07:12:34;6.57;;;2.40;;
71095;SDS011;58753;49.440;11.126;2023-12-07T07:15:00;7.73;;;4.07;;
71095;SDS011;58753;49.440;11.126;2023-12-07T07:17:26;4.15;;;2.45;;
71095;SDS011;58753;49.440;11.126;2023-12-07T07:19:51;3.97;;;2.70;;
71095;SDS011;58753;49.440;11.126;2023-12-07T07:22:17;2.97;;;2.03;;
71095;SDS011;58753;49.440;11.126;2023-12-07T07:24:42;2.50;;;1.23;;
71095;SDS011;58753;49.440;11.126;2023-12-07T07:27:07;3.33;;;1.73;;
71095;SDS011;58753;49.440;11.126;2023-12-07T07:29:33;3.67;;;1.73;;
71095;SDS011;58753;49.440;11.126;2023-12-07T07:31:58;4.60;;;2.20;;
71095;SDS011;58753;49.440;11.126;2023-12-07T07:34:24;5.35;;;2.97;;
71095;SDS011;58753;49.440;11.126;2023-12-07T07:36:50;4.80;;;2.17;;
71095;SDS011;58753;49.440;11.126;2023-12-07T07:39:15;6.78;;;2.17;;
71095;SDS011;58753;49.440;11.126;2023-12-07T07:41:41;5.13;;;2.97;;
71095;SDS011;58753;49.440;11.126;2023-12-07T07:44:06;3.70;;;2.10;;
71095;SDS011;58753;49.440;11.126;2023-12-07T07:46:32;8.32;;;2.42;;
71095;SDS011;58753;49.440;11.126;2023-12-07T07:48:57;3.60;;;2.33;;
71095;SDS011;58753;49.440;11.126;2023-12-07T07:51:22;3.23;;;1.77;;
71095;SDS011;58753;49.440;11.126;2023-12-07T07:53:48;11.87;;;3.53;;
71095;SDS011;58753;49.440;11.126;2023-12-07T07:56:13;6.57;;;2.37;;
71095;SDS011;58753;49.440;11.126;2023-12-07T07:58:39;5.63;;;2.67;;
71095;SDS011;58753;49.440;11.126;2023-12-07T08:01:04;5.53;;;3.30;;
71095;SDS011;58753;49.440;11.126;2023-12-07T08:03:29;6.20;;;2.57;;
71095;SDS011;58753;49.440;11.126;2023-12-07T08:05:55;7.10;;;4.17;;
71095;SDS011;58753;49.440;11.126;2023-12-07T08:08:20;5.22;;;2.60;;
71095;SDS011;58753;49.440;11.126;2023-12-07T08:10:46;6.27;;;3.53;;
71095;SDS011;58753;49.440;11.126;2023-12-07T08:13:11;4.50;;;2.57;;
71095;SDS011;58753;49.440;11.126;2023-12-07T08:15:37;7.25;;;3.38;;
71095;SDS011;58753;49.440;11.126;2023-12-07T08:18:02;5.17;;;2.93;;
71095;SDS011;58753;49.440;11.126;2023-12-07T08:20:27;6.13;;;2.87;;
71095;SDS011;58753;49.440;11.126;2023-12-07T08:22:53;7.83;;;3.70;;
71095;SDS011;58753;49.440;11.126;2023-12-07T08:25:18;6.57;;;3.58;;
71095;SDS011;58753;49.440;11.126;2023-12-07T08:27:44;4.87;;;2.97;;
71095;SDS011;58753;49.440;11.126;2023-12-07T08:30:11;9.88;;;4.07;;
71095;SDS011;58753;49.440;11.126;2023-12-07T08:32:37;7.50;;;3.60;;
71095;SDS011;58753;49.440;11.126;2023-12-07T08:35:03;6.97;;;3.07;;
71095;SDS011;58753;49.440;11.126;2023-12-07T08:37:30;5.77;;;3.67;;
71095;SDS011;58753;49.440;11.126;2023-12-07T08:39:56;7.55;;;3.55;;
71095;SDS011;58753;49.440;11.126;2023-12-07T08:42:21;9.97;;;3.67;;
71095;SDS011;58753;49.440;11.126;2023-12-07T08:44:47;12.17;;;3.83;;
71095;SDS011;58753;49.440;11.126;2023-12-07T08:47:12;6.33;;;3.17;;
71095;SDS011;58753;49.440;11.126;2023-12-07T08:49:37;10.27;;;4.10;;
71095;SDS011;58753;49.440;11.126;2023-12-07T08:52:03;6.57;;;2.37;;
71095;SDS011;58753;49.440;11.126;2023-12-07T08:54:28;9.87;;;3.57;;
71095;SDS011;58753;49.440;11.126;2023-12-07T08:56:54;5.05;;;3.17;;
71095;SDS011;58753;49.440;11.126;2023-12-07T08:59:23;6.53;;;3.33;;
71095;SDS011;58753;49.440;11.126;2023-12-07T09:01:52;8.60;;;4.25;;
71095;SDS011;58753;49.440;11.126;2023-12-07T09:04:17;8.13;;;4.33;;
71095;SDS011;58753;49.440;11.126;2023-12-07T09:06:42;8.20;;;2.95;;
71095;SDS011;58753;49.440;11.126;2023-12-07T09:09:08;7.63;;;3.27;;
71095;SDS011;58753;49.440;11.126;2023-12-07T09:11:33;5.50;;;2.73;;
71095;SDS011;58753;49.440;11.126;2023-12-07T09:13:58;5.40;;;3.07;;
71095;SDS011;58753;49.440;11.126;2023-12-07T09:16:25;5.55;;;2.40;;
71095;SDS011;58753;49.440;11.126;2023-12-07T09:18:51;8.18;;;4.18;;
71095;SDS011;58753;49.440;11.126;2023-12-07T09:21:16;6.97;;;3.60;;
71095;SDS011;58753;49.440;11.126;2023-12-07T09:23:42;9.10;;;4.03;;
71095;SDS011;58753;49.440;11.126;2023-12-07T09:26:07;4.77;;;2.83;;
71095;SDS011;58753;49.440;11.126;2023-12-07T09:28:33;9.37;;;4.27;;
71095;SDS011;58753;49.440;11.126;2023-12-07T09:30:59;9.30;;;4.43;;
71095;SDS011;58753;49.440;11.126;2023-12-07T09:33:24;8.43;;;2.67;;
71095;SDS011;58753;49.440;11.126;2023-12-07T09:35:49;9.43;;;4.20;;
71095;SDS011;58753;49.440;11.126;2023-12-07T09:38:15;11.23;;;4.72;;
71095;SDS011;58753;49.440;11.126;2023-12-07T09:40:41;16.27;;;4.03;;
71095;SDS011;58753;49.440;11.126;2023-12-07T09:43:07;12.47;;;4.30;;
71095;SDS011;58753;49.440;11.126;2023-12-07T09:45:32;9.67;;;3.30;;
71095;SDS011;58753;49.440;11.126;2023-12-07T09:47:58;7.70;;;4.40;;
71095;SDS011;58753;49.440;11.126;2023-12-07T09:50:25;7.70;;;3.47;;
71095;SDS011;58753;49.440;11.126;2023-12-07T09:52:56;9.52;;;4.25;;
71095;SDS011;58753;49.440;11.126;2023-12-07T09:55:23;7.00;;;3.33;;
71095;SDS011;58753;49.440;11.126;2023-12-07T09:57:49;9.70;;;4.25;;
71095;SDS011;58753;49.440;11.126;2023-12-07T10:00:15;7.57;;;3.90;;
71095;SDS011;58753;49.440;11.126;2023-12-07T10:02:43;10.13;;;4.57;;
71095;SDS011;58753;49.440;11.126;2023-12-07T10:05:10;6.90;;;4.50;;
71095;SDS011;58753;49.440;11.126;2023-12-07T10:07:43;8.25;;;4.05;;
71095;SDS011;58753;49.440;11.126;2023-12-07T10:10:09;8.18;;;3.70;;
71095;SDS011;58753;49.440;11.126;2023-12-07T10:15:17;10.55;;;5.03;;
71095;SDS011;58753;49.440;11.126;2023-12-07T10:20:20;10.95;;;4.40;;
71095;SDS011;58753;49.440;11.126;2023-12-07T10:22:49;14.15;;;5.07;;
71095;SDS011;58753;49.440;11.126;2023-12-07T10:25:26;9.63;;;3.83;;
71095;SDS011;58753;49.440;11.126;2023-12-07T10:27:51;11.95;;;4.50;;
71095;SDS011;58753;49.440;11.126;2023-12-07T10:30:17;8.47;;;4.77;;
71095;SDS011;58753;49.440;11.126;2023-12-07T10:32:46;9.25;;;4.82;;
71095;SDS011;58753;49.440;11.126;2023-12-07T10:35:11;11.00;;;5.37;;
71095;SDS011;58753;49.440;11.126;2023-12-07T10:37:36;8.40;;;4.43;;
71095;SDS011;58753;49.440;11.126;2023-12-07T10:40:02;10.57;;;5.20;;
71095;SDS011;58753;49.440;11.126;2023-12-07T10:42:32;12.70;;;3.97;;
71095;SDS011;58753;49.440;11.126;2023-12-07T10:44:59;14.10;;;5.38;;
71095;SDS011;58753;49.440;11.126;2023-12-07T10:47:29;9.57;;;5.03;;
71095;SDS011;58753;49.440;11.126;2023-12-07T10:49:55;11.93;;;7.63;;
71095;SDS011;58753;49.440;11.126;2023-12-07T10:52:25;12.10;;;6.03;;
71095;SDS011;58753;49.440;11.126;2023-12-07T10:55:09;12.70;;;6.57;;
71095;SDS011;58753;49.440;11.126;2023-12-07T10:57:38;10.52;;;4.50;;
71095;SDS011;58753;49.440;11.126;2023-12-07T11:00:05;8.63;;;4.23;;
71095;SDS011;58753;49.440;11.126;2023-12-07T11:02:32;9.05;;;5.68;;
71095;SDS011;58753;49.440;11.126;2023-12-07T11:04:59;8.77;;;4.53;;
71095;SDS011;58753;49.440;11.126;2023-12-07T11:07:27;7.15;;;3.55;;
71095;SDS011;58753;49.440;11.126;2023-12-07T11:10:05;8.00;;;4.20;;
71095;SDS011;58753;49.440;11.126;2023-12-07T11:12:40;12.97;;;6.67;;
71095;SDS011;58753;49.440;11.126;2023-12-07T11:15:10;9.85;;;5.40;;
71095;SDS011;58753;49.440;11.126;2023-12-07T11:17:55;10.48;;;5.90;;
71095;SDS011;58753;49.440;11.126;2023-12-07T11:20:40;11.05;;;5.57;;
71095;SDS011;58753;49.440;11.126;2023-12-07T11:23:07;11.32;;;5.03;;
71095;SDS011;58753;49.440;11.126;2023-12-07T11:25:33;7.57;;;4.10;;
71095;SDS011;58753;49.440;11.126;2023-12-07T11:28:05;10.98;;;4.70;;
71095;SDS011;58753;49.440;11.126;2023-12-07T11:30:33;13.43;;;6.37;;
71095;SDS011;58753;49.440;11.126;2023-12-07T11:33:00;8.43;;;4.40;;
71095;SDS011;58753;49.440;11.126;2023-12-07T11:35:28;8.93;;;5.40;;
71095;SDS011;58753;49.440;11.126;2023-12-07T11:38:07;10.73;;;4.97;;
71095;SDS011;58753;49.440;11.126;2023-12-07T11:40:42;6.63;;;3.63;;
71095;SDS011;58753;49.440;11.126;2023-12-07T11:43:18;7.25;;;3.65;;
71095;SDS011;58753;49.440;11.126;2023-12-07T11:46:01;5.30;;;3.42;;
71095;SDS011;58753;49.440;11.126;2023-12-07T11:48:26;10.50;;;4.40;;
71095;SDS011;58753;49.440;11.126;2023-12-07T11:53:34;9.77;;;4.75;;
71095;SDS011;58753;49.440;11.126;2023-12-07T11:56:01;8.77;;;4.68;;
71095;SDS011;58753;49.440;11.126;2023-12-07T11:58:32;11.90;;;4.20;;
71095;SDS011;58753;49.440;11.126;2023-12-07T12:00:58;10.45;;;4.18;;
71095;SDS011;58753;49.440;11.126;2023-12-07T12:03:25;8.87;;;4.93;;
71095;SDS011;58753;49.440;11.126;2023-12-07T12:05:51;11.57;;;4.78;;
71095;SDS011;58753;49.440;11.126;2023-12-07T12:08:17;12.05;;;5.88;;
71095;SDS011;58753;49.440;11.126;2023-12-07T12:10:44;10.68;;;4.88;;
71095;SDS011;58753;49.440;11.126;2023-12-07T12:13:10;10.57;;;4.55;;
71095;SDS011;58753;49.440;11.126;2023-12-07T12:15:37;10.77;;;4.20;;
71095;SDS011;58753;49.440;11.126;2023-12-07T12:18:04;5.88;;;2.80;;
71095;SDS011;58753;49.440;11.126;2023-12-07T12:20:30;11.95;;;3.97;;
71095;SDS011;58753;49.440;11.126;2023-12-07T12:22:56;4.70;;;2.50;;
71095;SDS011;58753;49.440;11.126;2023-12-07T12:25:40;7.17;;;3.80;;
71095;SDS011;58753;49.440;11.126;2023-12-07T12:28:06;6.15;;;3.25;;
71095;SDS011;58753;49.440;11.126;2023-12-07T12:30:32;8.70;;;2.73;;
71095;SDS011;58753;49.440;11.126;2023-12-07T12:32:59;5.32;;;3.38;;
71095;SDS011;58753;49.440;11.126;2023-12-07T12:35:25;5.20;;;3.30;;
71095;SDS011;58753;49.440;11.126;2023-12-07T12:37:50;5.10;;;2.13;;
71095;SDS011;58753;49.440;11.126;2023-12-07T12:40:17;5.88;;;2.67;;
71095;SDS011;58753;49.440;11.126;2023-12-07T12:42:48;5.85;;;3.10;;
71095;SDS011;58753;49.440;11.126;2023-12-07T12:45:17;4.30;;;2.67;;
71095;SDS011;58753;49.440;11.126;2023-12-07T12:47:43;5.97;;;2.80;;
71095;SDS011;58753;49.440;11.126;2023-12-07T12:50:10;3.83;;;2.30;;
71095;SDS011;58753;49.440;11.126;2023-12-07T12:52:37;5.47;;;2.50;;
71095;SDS011;58753;49.440;11.126;2023-12-07T12:55:10;4.30;;;2.80;;
71095;SDS011;58753;49.440;11.126;2023-12-07T12:57:36;3.80;;;1.90;;
71095;SDS011;58753;49.440;11.126;2023-12-07T13:00:03;4.88;;;2.33;;
71095;SDS011;58753;49.440;11.126;2023-12-07T13:02:29;5.18;;;2.78;;
71095;SDS011;58753;49.440;11.126;2023-12-07T13:04:54;4.60;;;2.60;;
71095;SDS011;58753;49.440;11.126;2023-12-07T13:07:21;7.55;;;3.25;;
71095;SDS011;58753;49.440;11.126;2023-12-07T13:09:46;3.53;;;2.30;;
71095;SDS011;58753;49.440;11.126;2023-12-07T13:12:12;4.30;;;1.80;;
71095;SDS011;58753;49.440;11.126;2023-12-07T13:14:37;3.63;;;2.33;;
71095;SDS011;58753;49.440;11.126;2023-12-07T13:17:04;3.80;;;2.15;;
71095;SDS011;58753;49.440;11.126;2023-12-07T13:19:32;3.70;;;1.90;;
71095;SDS011;58753;49.440;11.126;2023-12-07T13:21:58;5.70;;;2.03;;
71095;SDS011;58753;49.440;11.126;2023-12-07T13:24:23;5.13;;;2.25;;
71095;SDS011;58753;49.440;11.126;2023-12-07T13:26:49;4.97;;;2.07;;
71095;SDS011;58753;49.440;11.126;2023-12-07T13:29:14;5.70;;;2.67;;
71095;SDS011;58753;49.440;11.126;2023-12-07T13:31:39;7.27;;;3.13;;
71095;SDS011;58753;49.440;11.126;2023-12-07T13:34:05;5.82;;;3.25;;
71095;SDS011;58753;49.440;11.126;2023-12-07T13:36:31;6.68;;;2.40;;
71095;SDS011;58753;49.440;11.126;2023-12-07T13:38:58;6.43;;;2.88;;
71095;SDS011;58753;49.440;11.126;2023-12-07T13:41:24;4.07;;;1.83;;
71095;SDS011;58753;49.440;11.126;2023-12-07T13:43:49;5.10;;;2.50;;
71095;SDS011;58753;49.440;11.126;2023-12-07T13:46:16;6.00;;;2.70;;
71095;SDS011;58753;49.440;11.126;2023-12-07T13:48:44;4.35;;;2.25;;
71095;SDS011;58753;49.440;11.126;2023-12-07T13:51:10;11.87;;;2.27;;
71095;SDS011;58753;49.440;11.126;2023-12-07T13:53:35;4.00;;;2.13;;
71095;SDS011;58753;49.440;11.126;2023-12-07T13:56:02;4.57;;;2.33;;
71095;SDS011;58753;49.440;11.126;2023-12-07T13:58:29;6.23;;;1.80;;
71095;SDS011;58753;49.440;11.126;2023-12-07T14:00:57;4.13;;;2.72;;
71095;SDS011;58753;49.440;11.126;2023-12-07T14:03:22;3.63;;;2.20;;
71095;SDS011;58753;49.440;11.126;2023-12-07T14:05:48;5.22;;;1.70;;
71095;SDS011;58753;49.440;11.126;2023-12-07T14:08:14;3.97;;;2.27;;
71095;SDS011;58753;49.440;11.126;2023-12-07T14:10:39;6.05;;;2.45;;
71095;SDS011;58753;49.440;11.126;2023-12-07T14:13:05;6.03;;;2.80;;
71095;SDS011;58753;49.440;11.126;2023-12-07T14:15:30;6.17;;;2.33;;
71095;SDS011;58753;49.440;11.126;2023-12-07T14:17:57;4.70;;;2.72;;
71095;SDS011;58753;49.440;11.126;2023-12-07T14:20:25;3.72;;;1.88;;
71095;SDS011;58753;49.440;11.126;2023-12-07T14:22:52;7.22;;;3.50;;
71095;SDS011;58753;49.440;11.126;2023-12-07T14:25:18;8.07;;;2.37;;
71095;SDS011;58753;49.440;11.126;2023-12-07T14:27:44;8.60;;;3.80;;
71095;SDS011;58753;49.440;11.126;2023-12-07T14:30:10;7.13;;;3.20;;
71095;SDS011;58753;49.440;11.126;2023-12-07T14:32:35;7.30;;;4.13;;
71095;SDS011;58753;49.440;11.126;2023-12-07T14:35:01;11.53;;;4.63;;
71095;SDS011;58753;49.440;11.126;2023-12-07T14:37:26;5.03;;;2.40;;
71095;SDS011;58753;49.440;11.126;2023-12-07T14:39:52;7.00;;;2.33;;